Time;durP1;ratioP1;P1;durP2;ratioP2;P2;SDS_P1;SDS_P2;PMS_P1;PMS_P2;Temp;Humidity;BMP_temperature;BMP_pressure;BME280_temperature;BME280_humidity;BME280_pressure;Samples;Min_cycle;Max_cycle;Signal;HPM_P1;HPM_P2
2022/12/05 00:00:23;;;;;;;;;;;3.70;99.90;;;;;;5049896;28;19982;-60
2022/12/05 00:02:48;;;;;;;;;;;3.70;99.90;;;;;;5045017;28;19913;-62
2022/12/05 00:05:13;;;;;;;;;;;3.70;99.90;;;;;;5047714;28;19916;-59
2022/12/05 00:07:39;;;;;;;;;;;3.70;99.90;;;;;;5047071;28;19925;-62
2022/12/05 00:10:05;;;;;;;;;;;3.70;99.90;;;;;;5045495;28;19917;-60
2022/12/05 00:12:30;;;;;;;;;;;3.70;99.90;;;;;;5042875;28;19924;-60
2022/12/05 00:14:56;;;;;;;;;;;3.70;99.90;;;;;;5045877;28;19924;-61
2022/12/05 00:17:21;;;;;;;;;;;3.70;99.90;;;;;;5043368;28;19920;-62
2022/12/05 00:19:47;;;;;;;;;;;3.70;99.90;;;;;;5046958;28;20590;-62
2022/12/05 00:22:12;;;;;;;;;;;3.80;99.90;;;;;;5047688;28;19916;-63
2022/12/05 00:24:38;;;;;;;;;;;3.80;99.90;;;;;;5046930;28;19958;-63
2022/12/05 00:27:03;;;;;;;;;;;3.70;99.90;;;;;;5062735;28;20003;-61
2022/12/05 00:29:29;;;;;;;;;;;3.70;99.90;;;;;;5048365;28;19921;-59
2022/12/05 00:31:54;;;;;;;;;;;3.70;99.90;;;;;;5048396;28;20266;-61
2022/12/05 00:34:20;;;;;;;;;;;3.70;99.90;;;;;;5042547;28;19913;-61
2022/12/05 00:36:45;;;;;;;;;;;3.70;99.90;;;;;;5050032;28;19913;-60
2022/12/05 00:39:13;;;;;;;;;;;3.70;99.90;;;;;;5045527;28;19913;-61
2022/12/05 00:41:38;;;;;;;;;;;3.70;99.90;;;;;;5052163;28;20343;-60
2022/12/05 00:44:04;;;;;;;;;;;3.80;99.90;;;;;;5049760;28;19924;-59
2022/12/05 00:46:30;;;;;;;;;;;3.80;99.90;;;;;;5051832;28;19912;-57
2022/12/05 00:48:57;;;;;;;;;;;3.80;99.90;;;;;;5043232;28;19919;-60
2022/12/05 00:51:25;;;;;;;;;;;3.80;99.90;;;;;;5053818;28;20389;-60
2022/12/05 00:53:51;;;;;;;;;;;3.80;99.90;;;;;;5040670;28;19913;-61
2022/12/05 00:56:18;;;;;;;;;;;3.80;99.90;;;;;;5052596;28;20381;-60
2022/12/05 00:58:44;;;;;;;;;;;3.80;99.90;;;;;;5045310;28;19917;-60
2022/12/05 01:01:14;;;;;;;;;;;3.80;99.90;;;;;;5052471;28;19913;-61
2022/12/05 01:03:40;;;;;;;;;;;3.80;99.90;;;;;;5050478;28;19917;-63
2022/12/05 01:06:05;;;;;;;;;;;3.70;99.90;;;;;;5050448;28;20298;-62
2022/12/05 01:08:31;;;;;;;;;;;3.80;99.90;;;;;;5054587;28;20057;-60
2022/12/05 01:10:57;;;;;;;;;;;3.70;99.90;;;;;;5049976;28;19924;-61
2022/12/05 01:13:23;;;;;;;;;;;3.70;99.90;;;;;;5048056;28;19916;-60
2022/12/05 01:15:48;;;;;;;;;;;3.70;99.90;;;;;;5046178;28;19912;-61
2022/12/05 01:18:14;;;;;;;;;;;3.80;99.90;;;;;;5044012;28;19940;-62
2022/12/05 01:20:40;;;;;;;;;;;3.80;99.90;;;;;;5046889;28;19924;-61
2022/12/05 01:23:05;;;;;;;;;;;3.80;99.90;;;;;;5048165;28;19913;-61
2022/12/05 01:25:31;;;;;;;;;;;3.80;99.90;;;;;;5050903;28;19943;-61
2022/12/05 01:27:56;;;;;;;;;;;3.80;99.90;;;;;;5046489;28;19921;-60
2022/12/05 01:30:22;;;;;;;;;;;3.80;99.90;;;;;;5046233;28;20014;-62
2022/12/05 01:32:47;;;;;;;;;;;3.80;99.90;;;;;;5046696;28;19968;-60
2022/12/05 01:35:13;;;;;;;;;;;3.90;99.90;;;;;;5040374;28;20302;-60
2022/12/05 01:37:38;;;;;;;;;;;3.90;99.90;;;;;;5043407;28;19913;-59
2022/12/05 01:40:04;;;;;;;;;;;4.00;99.90;;;;;;5047963;28;20294;-62
2022/12/05 01:42:29;;;;;;;;;;;4.00;99.90;;;;;;5039250;28;20307;-60
2022/12/05 01:45:04;;;;;;;;;;;3.90;99.90;;;;;;5043525;28;19971;-59
2022/12/05 01:47:31;;;;;;;;;;;3.90;99.90;;;;;;5039562;28;19916;-62
2022/12/05 01:49:58;;;;;;;;;;;3.90;99.90;;;;;;5051808;28;19917;-63
2022/12/05 01:52:25;;;;;;;;;;;4.00;99.90;;;;;;5051692;28;19928;-61
2022/12/05 01:54:53;;;;;;;;;;;4.00;99.90;;;;;;5041214;28;19913;-59
2022/12/05 01:57:18;;;;;;;;;;;4.00;99.90;;;;;;5045880;28;19927;-62
2022/12/05 01:59:49;;;;;;;;;;;4.00;99.90;;;;;;5053138;28;19991;-63
2022/12/05 02:02:14;;;;;;;;;;;4.00;99.90;;;;;;5047707;28;19916;-61
2022/12/05 02:04:45;;;;;;;;;;;3.90;99.90;;;;;;5047538;28;20409;-62
2022/12/05 02:07:10;;;;;;;;;;;3.90;99.90;;;;;;5046368;28;19921;-62
2022/12/05 02:09:36;;;;;;;;;;;3.90;99.90;;;;;;5040415;28;19920;-62
2022/12/05 02:12:01;;;;;;;;;;;3.80;99.90;;;;;;5058206;28;19909;-60
2022/12/05 02:14:50;;;;;;;;;;;3.80;99.90;;;;;;5046242;28;20305;-61
2022/12/05 02:17:21;;;;;;;;;;;3.80;99.90;;;;;;5043274;28;19913;-57
2022/12/05 02:20:05;;;;;;;;;;;3.80;99.90;;;;;;5041059;28;19939;-62
2022/12/05 02:22:50;;;;;;;;;;;3.60;99.90;;;;;;5051077;28;20363;-63
2022/12/05 02:25:15;;;;;;;;;;;3.50;99.90;;;;;;5042478;28;19919;-63
2022/12/05 02:27:59;;;;;;;;;;;3.50;99.90;;;;;;5044465;28;19931;-62
2022/12/05 02:30:25;;;;;;;;;;;3.40;99.90;;;;;;5039094;28;19979;-63
2022/12/05 02:32:51;;;;;;;;;;;3.40;99.90;;;;;;5041882;28;19912;-63
2022/12/05 02:35:36;;;;;;;;;;;3.40;99.90;;;;;;5051768;28;19920;-61
2022/12/05 02:38:24;;;;;;;;;;;3.40;99.90;;;;;;5054451;28;19935;-58
2022/12/05 02:40:50;;;;;;;;;;;3.40;99.90;;;;;;5021207;28;19913;-63
2022/12/05 02:43:28;;;;;;;;;;;3.50;99.90;;;;;;5047066;28;20279;-62
2022/12/05 02:45:56;;;;;;;;;;;3.50;99.90;;;;;;5046987;28;19920;-63
2022/12/05 02:48:22;;;;;;;;;;;3.40;99.90;;;;;;5047164;28;19959;-62
2022/12/05 02:50:49;;;;;;;;;;;3.50;99.90;;;;;;5049080;28;19928;-62
2022/12/05 02:53:16;;;;;;;;;;;3.40;99.90;;;;;;5044066;28;19920;-60
2022/12/05 02:55:42;;;;;;;;;;;3.30;99.90;;;;;;5047033;28;19940;-62
2022/12/05 02:58:11;;;;;;;;;;;3.20;99.90;;;;;;5041925;28;19913;-63
2022/12/05 03:00:38;;;;;;;;;;;3.30;99.90;;;;;;5055015;28;20790;-61
2022/12/05 03:03:10;;;;;;;;;;;3.30;99.90;;;;;;5046037;28;20046;-63
2022/12/05 03:05:38;;;;;;;;;;;3.10;99.90;;;;;;5048599;28;19951;-60
2022/12/05 03:08:06;;;;;;;;;;;3.10;99.90;;;;;;5050732;28;19917;-62
2022/12/05 03:10:33;;;;;;;;;;;3.00;99.90;;;;;;5052451;28;19913;-62
2022/12/05 03:13:04;;;;;;;;;;;3.00;99.90;;;;;;5048781;28;19920;-61
2022/12/05 03:15:35;;;;;;;;;;;3.00;99.90;;;;;;5049789;28;19916;-61
2022/12/05 03:18:05;;;;;;;;;;;2.90;99.90;;;;;;5040552;28;20353;-60
2022/12/05 03:20:33;;;;;;;;;;;2.90;99.90;;;;;;5049574;28;19920;-62
2022/12/05 03:23:01;;;;;;;;;;;2.90;99.90;;;;;;5049256;28;19932;-63
2022/12/05 03:25:35;;;;;;;;;;;2.90;99.90;;;;;;5054142;28;19916;-62
2022/12/05 03:28:08;;;;;;;;;;;2.90;99.90;;;;;;5053023;28;19912;-59
2022/12/05 03:30:36;;;;;;;;;;;2.90;99.90;;;;;;5053736;28;19966;-62
2022/12/05 03:33:16;;;;;;;;;;;2.90;99.90;;;;;;5049149;28;19959;-61
2022/12/05 03:35:42;;;;;;;;;;;2.90;99.90;;;;;;5046772;28;19920;-60
2022/12/05 03:38:07;;;;;;;;;;;2.80;99.90;;;;;;5048050;28;19912;-61
2022/12/05 03:41:11;;;;;;;;;;;2.90;99.90;;;;;;5048404;28;20012;-61
2022/12/05 03:43:42;;;;;;;;;;;2.80;99.90;;;;;;4925535;28;1741312;-61
2022/12/05 03:46:07;;;;;;;;;;;2.80;99.90;;;;;;4986249;28;19914;-59
2022/12/05 03:48:42;;;;;;;;;;;2.80;99.90;;;;;;5003524;28;20343;-59
2022/12/05 03:51:09;;;;;;;;;;;2.90;99.90;;;;;;5043330;28;20003;-60
2022/12/05 03:53:37;;;;;;;;;;;2.90;99.90;;;;;;5055824;28;20275;-62
2022/12/05 03:56:05;;;;;;;;;;;2.90;99.90;;;;;;5045155;28;20015;-62
2022/12/05 03:58:36;;;;;;;;;;;2.90;99.90;;;;;;5053206;28;20488;-58
2022/12/05 04:01:02;;;;;;;;;;;2.80;99.90;;;;;;5045393;28;19921;-60
2022/12/05 04:03:37;;;;;;;;;;;2.90;99.90;;;;;;5050684;28;19959;-60
2022/12/05 04:06:05;;;;;;;;;;;3.00;99.90;;;;;;5046660;28;20625;-61
2022/12/05 04:08:33;;;;;;;;;;;3.00;99.90;;;;;;5048071;28;19920;-61
2022/12/05 04:11:05;;;;;;;;;;;3.00;99.90;;;;;;5046230;28;20298;-61
2022/12/05 04:13:37;;;;;;;;;;;3.00;99.90;;;;;;5050318;28;19917;-60
2022/12/05 04:18:54;;;;;;;;;;;3.10;99.90;;;;;;5049668;28;19978;-61
2022/12/05 04:21:37;;;;;;;;;;;3.10;99.90;;;;;;5048769;28;19924;-62
2022/12/05 04:26:52;;;;;;;;;;;3.20;99.90;;;;;;5049011;28;19924;-61
2022/12/05 04:29:30;;;;;;;;;;;3.10;99.90;;;;;;5047268;28;19919;-62
2022/12/05 04:31:59;;;;;;;;;;;3.10;99.90;;;;;;5054352;28;20374;-61
2022/12/05 04:34:27;;;;;;;;;;;2.90;99.90;;;;;;5051682;28;19919;-61
2022/12/05 04:36:55;;;;;;;;;;;2.80;99.90;;;;;;5047567;28;20015;-62
2022/12/05 04:39:36;;;;;;;;;;;2.70;99.90;;;;;;5046563;28;20015;-61
2022/12/05 04:42:07;;;;;;;;;;;2.60;99.90;;;;;;5049989;28;19920;-63
2022/12/05 04:44:36;;;;;;;;;;;2.60;99.90;;;;;;5050036;28;20016;-60
2022/12/05 04:47:03;;;;;;;;;;;2.50;99.90;;;;;;5045175;28;19924;-60
2022/12/05 04:49:30;;;;;;;;;;;2.40;99.90;;;;;;5049240;28;20290;-58
2022/12/05 04:51:58;;;;;;;;;;;2.30;99.90;;;;;;5043274;28;19917;-62
2022/12/05 04:54:26;;;;;;;;;;;2.30;99.90;;;;;;5048195;28;20279;-60
2022/12/05 04:56:54;;;;;;;;;;;2.30;99.90;;;;;;5049061;28;20291;-60
2022/12/05 04:59:20;;;;;;;;;;;2.30;99.90;;;;;;5059137;28;19919;-62
2022/12/05 05:01:50;;;;;;;;;;;2.30;99.90;;;;;;5044114;28;19912;-61
2022/12/05 05:04:18;;;;;;;;;;;2.20;99.90;;;;;;5048359;28;19913;-61
2022/12/05 05:06:43;;;;;;;;;;;2.20;99.90;;;;;;5049616;28;19917;-58
2022/12/05 05:09:09;;;;;;;;;;;2.20;99.90;;;;;;5050783;28;19919;-61
2022/12/05 05:11:35;;;;;;;;;;;2.20;99.90;;;;;;5048536;28;20325;-56
2022/12/05 05:14:01;;;;;;;;;;;2.20;99.90;;;;;;5052602;28;20294;-61
2022/12/05 05:16:28;;;;;;;;;;;2.30;99.90;;;;;;5042299;28;19920;-61
2022/12/05 05:18:53;;;;;;;;;;;2.20;99.90;;;;;;5048974;28;19958;-60
2022/12/05 05:21:20;;;;;;;;;;;2.30;99.90;;;;;;5050716;28;19956;-61
2022/12/05 05:23:46;;;;;;;;;;;2.20;99.90;;;;;;5047090;28;20390;-59
2022/12/05 05:26:11;;;;;;;;;;;2.20;99.90;;;;;;5048557;28;19920;-62
2022/12/05 05:28:37;;;;;;;;;;;2.20;99.90;;;;;;5046342;28;19917;-61
2022/12/05 05:31:03;;;;;;;;;;;2.20;99.90;;;;;;5049129;28;19916;-62
2022/12/05 05:33:29;;;;;;;;;;;2.10;99.90;;;;;;5042674;28;19963;-60
2022/12/05 05:35:54;;;;;;;;;;;2.20;99.90;;;;;;5042217;28;19947;-60
2022/12/05 05:38:19;;;;;;;;;;;2.20;99.90;;;;;;5046476;28;19920;-61
2022/12/05 05:40:45;;;;;;;;;;;2.20;99.90;;;;;;5047352;28;19913;-61
2022/12/05 05:43:10;;;;;;;;;;;2.20;99.90;;;;;;5053002;28;19917;-61
2022/12/05 05:45:36;;;;;;;;;;;2.10;99.90;;;;;;5073278;22;20006;-61
2022/12/05 05:48:01;;;;;;;;;;;2.10;99.90;;;;;;5048902;28;19962;-61
2022/12/05 05:50:27;;;;;;;;;;;2.10;99.90;;;;;;5042987;28;20306;-62
2022/12/05 05:52:53;;;;;;;;;;;2.00;99.90;;;;;;5045690;28;20031;-62
2022/12/05 05:55:18;;;;;;;;;;;2.10;99.90;;;;;;5048886;28;19913;-61
2022/12/05 05:57:44;;;;;;;;;;;2.10;99.90;;;;;;5048227;28;19976;-61
2022/12/05 06:00:10;;;;;;;;;;;2.10;99.90;;;;;;5040429;28;19921;-61
2022/12/05 06:02:35;;;;;;;;;;;2.10;99.90;;;;;;5037710;28;19913;-60
2022/12/05 06:05:01;;;;;;;;;;;2.20;99.90;;;;;;5045506;28;19919;-61
2022/12/05 06:07:27;;;;;;;;;;;2.10;99.90;;;;;;5047927;28;19921;-61
2022/12/05 06:09:52;;;;;;;;;;;2.10;99.90;;;;;;5048021;28;19967;-60
2022/12/05 06:12:17;;;;;;;;;;;2.20;99.90;;;;;;5042598;28;19913;-60
2022/12/05 06:14:43;;;;;;;;;;;2.20;99.90;;;;;;5045731;28;20485;-61
2022/12/05 06:17:08;;;;;;;;;;;2.10;99.90;;;;;;5049077;28;19939;-61
2022/12/05 06:19:34;;;;;;;;;;;2.10;99.90;;;;;;5039491;28;19924;-60
2022/12/05 06:21:59;;;;;;;;;;;2.10;99.90;;;;;;5052668;28;19919;-61
2022/12/05 06:24:25;;;;;;;;;;;2.00;99.90;;;;;;5050225;28;19952;-60
2022/12/05 06:26:50;;;;;;;;;;;2.10;99.90;;;;;;5047829;28;19968;-62
2022/12/05 06:29:16;;;;;;;;;;;2.00;99.90;;;;;;5049418;28;19944;-59
2022/12/05 06:31:41;;;;;;;;;;;2.00;99.90;;;;;;5053708;28;19908;-60
2022/12/05 06:34:07;;;;;;;;;;;2.00;99.90;;;;;;5053213;28;20400;-61
2022/12/05 06:36:32;;;;;;;;;;;2.10;99.90;;;;;;5051661;28;19912;-61
2022/12/05 06:38:58;;;;;;;;;;;2.10;99.90;;;;;;5051135;28;19909;-61
2022/12/05 06:41:24;;;;;;;;;;;2.10;99.90;;;;;;5053280;28;19959;-60
2022/12/05 06:43:57;;;;;;;;;;;2.00;99.90;;;;;;5050369;28;19924;-60
2022/12/05 06:46:24;;;;;;;;;;;2.00;99.90;;;;;;5042233;28;19917;-60
2022/12/05 06:48:54;;;;;;;;;;;2.00;99.90;;;;;;5050892;28;19927;-61
2022/12/05 06:51:19;;;;;;;;;;;1.90;99.90;;;;;;5047650;28;19962;-61
2022/12/05 06:53:45;;;;;;;;;;;1.90;99.90;;;;;;5051282;28;19920;-60
2022/12/05 06:56:12;;;;;;;;;;;2.00;99.90;;;;;;5051409;28;20359;-60
2022/12/05 06:58:38;;;;;;;;;;;2.10;99.90;;;;;;5050086;28;19912;-60
2022/12/05 07:03:48;;;;;;;;;;;2.10;99.90;;;;;;5048690;28;19942;-60
2022/12/05 07:06:14;;;;;;;;;;;2.00;99.90;;;;;;5052903;28;20516;-61
2022/12/05 07:08:40;;;;;;;;;;;2.10;99.90;;;;;;5048523;28;19920;-60
2022/12/05 07:11:05;;;;;;;;;;;2.00;99.90;;;;;;5052009;28;19920;-61
2022/12/05 07:13:31;;;;;;;;;;;2.00;99.90;;;;;;5049710;28;19916;-65
2022/12/05 07:15:57;;;;;;;;;;;2.00;99.90;;;;;;5049505;28;19924;-59
2022/12/05 07:18:23;;;;;;;;;;;2.00;99.90;;;;;;5048780;28;19913;-61
2022/12/05 07:20:56;;;;;;;;;;;2.00;99.90;;;;;;5052464;28;19913;-60
2022/12/05 07:23:21;;;;;;;;;;;2.10;99.90;;;;;;5052510;28;19905;-61
2022/12/05 07:25:47;;;;;;;;;;;2.00;99.90;;;;;;5046464;28;19909;-61
2022/12/05 07:28:12;;;;;;;;;;;2.00;99.90;;;;;;5040876;28;20269;-61
2022/12/05 07:30:38;;;;;;;;;;;2.00;99.90;;;;;;5047330;28;19917;-60
2022/12/05 07:33:03;;;;;;;;;;;2.00;99.90;;;;;;5051385;28;19955;-60
2022/12/05 07:35:28;;;;;;;;;;;2.00;99.90;;;;;;5050496;28;19909;-60
2022/12/05 07:37:54;;;;;;;;;;;2.00;99.90;;;;;;5048880;28;20387;-60
2022/12/05 07:40:19;;;;;;;;;;;2.10;99.90;;;;;;5048854;28;20331;-61
2022/12/05 07:42:47;;;;;;;;;;;2.10;99.90;;;;;;5050698;28;19913;-58
2022/12/05 07:45:12;;;;;;;;;;;2.10;99.90;;;;;;5048305;28;20529;-61
2022/12/05 07:47:38;;;;;;;;;;;2.20;99.90;;;;;;5049651;28;19920;-59
2022/12/05 07:50:03;;;;;;;;;;;2.20;99.90;;;;;;5049426;28;19928;-60
2022/12/05 07:52:29;;;;;;;;;;;2.30;99.90;;;;;;5053280;28;19916;-63
2022/12/05 07:54:54;;;;;;;;;;;2.30;99.90;;;;;;5052397;28;19966;-60
2022/12/05 07:57:20;;;;;;;;;;;2.30;99.90;;;;;;5052046;28;19913;-61
2022/12/05 07:59:45;;;;;;;;;;;2.30;99.90;;;;;;5049077;28;19913;-61
2022/12/05 08:02:11;;;;;;;;;;;2.40;99.90;;;;;;5050469;28;19912;-61
2022/12/05 08:04:36;;;;;;;;;;;2.40;99.90;;;;;;5052004;28;19999;-61
2022/12/05 08:07:02;;;;;;;;;;;2.50;99.90;;;;;;5051206;28;19913;-61
2022/12/05 08:09:27;;;;;;;;;;;2.40;99.90;;;;;;5049502;28;19917;-62
2022/12/05 08:11:53;;;;;;;;;;;2.50;99.90;;;;;;5050007;28;19913;-62
2022/12/05 08:14:18;;;;;;;;;;;2.50;99.90;;;;;;5051060;28;19919;-62
2022/12/05 08:16:44;;;;;;;;;;;2.50;99.90;;;;;;5050312;28;19944;-62
2022/12/05 08:19:11;;;;;;;;;;;2.40;99.90;;;;;;5049834;28;19939;-62
2022/12/05 08:21:37;;;;;;;;;;;2.50;99.90;;;;;;5048121;28;19921;-60
2022/12/05 08:24:03;;;;;;;;;;;2.40;99.90;;;;;;5049917;28;19920;-61
2022/12/05 08:26:30;;;;;;;;;;;2.30;99.90;;;;;;5050808;28;19913;-60
2022/12/05 08:28:57;;;;;;;;;;;2.40;99.90;;;;;;5058533;28;19917;-59
2022/12/05 08:31:23;;;;;;;;;;;2.40;99.90;;;;;;5050469;28;19913;-61
2022/12/05 08:33:49;;;;;;;;;;;2.30;99.90;;;;;;5047629;28;20011;-61
2022/12/05 08:36:15;;;;;;;;;;;2.40;99.90;;;;;;5049766;28;19935;-60
2022/12/05 08:38:41;;;;;;;;;;;2.50;99.90;;;;;;5045929;28;19913;-61
2022/12/05 08:41:08;;;;;;;;;;;2.60;99.90;;;;;;5050914;28;19913;-61
2022/12/05 08:43:34;;;;;;;;;;;2.60;99.90;;;;;;5052210;28;19909;-60
2022/12/05 08:45:59;;;;;;;;;;;2.70;99.90;;;;;;5049997;28;19921;-61
2022/12/05 08:48:25;;;;;;;;;;;2.70;99.90;;;;;;5049949;28;19916;-61
2022/12/05 08:50:51;;;;;;;;;;;2.70;99.90;;;;;;5051430;28;20012;-61
2022/12/05 08:53:16;;;;;;;;;;;2.70;99.90;;;;;;5051331;28;21461;-62
2022/12/05 08:55:42;;;;;;;;;;;2.60;99.90;;;;;;5051195;28;20007;-62
2022/12/05 08:58:07;;;;;;;;;;;2.60;99.90;;;;;;5050043;28;20365;-62
2022/12/05 09:00:33;;;;;;;;;;;2.70;99.90;;;;;;5049486;28;19912;-61
2022/12/05 09:02:59;;;;;;;;;;;2.70;99.90;;;;;;5051712;28;20278;-61
2022/12/05 09:05:24;;;;;;;;;;;2.80;99.90;;;;;;5049721;28;19920;-62
2022/12/05 09:07:49;;;;;;;;;;;2.90;99.90;;;;;;5050118;28;20386;-60
2022/12/05 09:10:15;;;;;;;;;;;2.90;99.90;;;;;;5050854;28;20321;-59
2022/12/05 09:12:41;;;;;;;;;;;2.90;99.90;;;;;;5049525;28;19913;-61
2022/12/05 09:15:07;;;;;;;;;;;2.90;99.90;;;;;;5048706;28;19913;-61
2022/12/05 09:17:33;;;;;;;;;;;2.90;99.90;;;;;;5050902;28;19920;-61
2022/12/05 09:19:58;;;;;;;;;;;2.90;99.90;;;;;;5049614;28;19912;-61
2022/12/05 09:22:23;;;;;;;;;;;2.90;99.90;;;;;;5051148;28;19924;-62
2022/12/05 09:24:49;;;;;;;;;;;2.90;99.90;;;;;;5051005;28;19913;-62
2022/12/05 09:27:15;;;;;;;;;;;2.80;99.90;;;;;;5048788;28;19929;-59
2022/12/05 09:29:40;;;;;;;;;;;2.90;99.90;;;;;;5047998;28;20283;-60
2022/12/05 09:32:05;;;;;;;;;;;2.90;99.90;;;;;;5050873;28;19913;-60
2022/12/05 09:34:31;;;;;;;;;;;3.00;99.90;;;;;;5050787;28;20302;-60
2022/12/05 09:36:57;;;;;;;;;;;3.10;99.90;;;;;;5050785;28;19939;-59
2022/12/05 09:39:23;;;;;;;;;;;3.10;99.90;;;;;;5048862;28;19931;-60
2022/12/05 09:42:04;;;;;;;;;;;3.10;99.90;;;;;;5050582;28;19999;-61
2022/12/05 09:44:40;;;;;;;;;;;3.10;99.90;;;;;;5049182;28;19919;-61
2022/12/05 09:47:12;;;;;;;;;;;3.10;99.90;;;;;;5051021;28;20011;-61
2022/12/05 09:49:42;;;;;;;;;;;3.10;99.90;;;;;;5051465;28;19913;-58
2022/12/05 09:52:10;;;;;;;;;;;3.10;99.90;;;;;;5054700;28;19948;-60
2022/12/05 09:54:35;;;;;;;;;;;3.10;99.90;;;;;;5054540;28;20448;-60
2022/12/05 09:57:02;;;;;;;;;;;3.10;99.90;;;;;;5055194;28;20083;-61
2022/12/05 09:59:27;;;;;;;;;;;3.00;99.90;;;;;;5052225;28;19999;-60
2022/12/05 10:02:11;;;;;;;;;;;3.10;99.90;;;;;;5054175;28;20007;-61
2022/12/05 10:04:45;;;;;;;;;;;3.10;99.90;;;;;;5054678;28;19958;-62
2022/12/05 10:07:20;;;;;;;;;;;3.20;99.90;;;;;;5053998;28;20401;-62
2022/12/05 10:09:51;;;;;;;;;;;3.20;99.90;;;;;;5053196;28;19919;-62
2022/12/05 10:12:37;;;;;;;;;;;3.20;99.90;;;;;;5053658;28;19920;-61
2022/12/05 10:15:07;;;;;;;;;;;3.00;99.90;;;;;;5049270;28;19917;-61
2022/12/05 10:17:34;;;;;;;;;;;3.20;99.90;;;;;;5054043;28;20271;-62
2022/12/05 10:20:02;;;;;;;;;;;3.20;99.90;;;;;;5052663;28;19959;-62
2022/12/05 10:22:30;;;;;;;;;;;3.20;99.90;;;;;;5052860;28;19924;-62
2022/12/05 10:24:59;;;;;;;;;;;3.00;99.90;;;;;;5053942;28;19948;-62
2022/12/05 10:27:45;;;;;;;;;;;3.10;99.90;;;;;;5053039;28;19943;-62
2022/12/05 10:30:15;;;;;;;;;;;3.20;99.90;;;;;;5045448;28;19935;-60
2022/12/05 10:32:43;;;;;;;;;;;3.20;99.90;;;;;;5053947;28;19917;-62
2022/12/05 10:35:20;;;;;;;;;;;3.30;99.90;;;;;;5053934;28;19935;-61
2022/12/05 10:37:54;;;;;;;;;;;3.30;99.90;;;;;;5052582;28;19919;-62
2022/12/05 10:40:20;;;;;;;;;;;3.40;99.90;;;;;;5053073;28;20428;-61
2022/12/05 10:42:47;;;;;;;;;;;3.30;99.90;;;;;;5054365;28;19912;-61
2022/12/05 10:45:13;;;;;;;;;;;3.30;99.90;;;;;;5052145;28;19923;-59
2022/12/05 10:47:39;;;;;;;;;;;3.30;99.90;;;;;;5053121;28;20321;-59
2022/12/05 10:50:22;;;;;;;;;;;3.30;99.90;;;;;;5053149;28;19935;-60
2022/12/05 10:52:47;;;;;;;;;;;3.30;99.90;;;;;;5054521;28;19916;-61
2022/12/05 10:55:15;;;;;;;;;;;3.30;99.90;;;;;;5052876;28;20271;-58
2022/12/05 10:57:40;;;;;;;;;;;3.30;99.90;;;;;;5052270;28;19912;-61
2022/12/05 11:00:14;;;;;;;;;;;3.20;99.90;;;;;;5051906;28;19909;-60
2022/12/05 11:02:40;;;;;;;;;;;3.10;99.90;;;;;;5052620;28;19923;-63
2022/12/05 11:05:06;;;;;;;;;;;3.10;99.90;;;;;;5052563;28;20046;-61
2022/12/05 11:07:34;;;;;;;;;;;3.10;99.90;;;;;;5052738;28;20007;-61
2022/12/05 11:10:01;;;;;;;;;;;3.10;99.90;;;;;;5052695;28;19913;-60
2022/12/05 11:12:34;;;;;;;;;;;3.10;99.90;;;;;;5053152;28;19996;-60
2022/12/05 11:15:15;;;;;;;;;;;3.10;99.90;;;;;;5051612;28;19912;-61
2022/12/05 11:17:41;;;;;;;;;;;3.10;99.90;;;;;;5051901;28;19913;-61
2022/12/05 11:20:18;;;;;;;;;;;3.10;99.90;;;;;;5052977;28;19962;-61
2022/12/05 11:22:45;;;;;;;;;;;3.10;99.90;;;;;;5047671;28;19920;-58
2022/12/05 11:25:29;;;;;;;;;;;3.20;99.90;;;;;;5051350;28;19921;-60
2022/12/05 11:27:55;;;;;;;;;;;3.20;99.90;;;;;;5047457;28;19925;-59
2022/12/05 11:30:23;;;;;;;;;;;3.30;99.90;;;;;;5052669;28;19913;-61
2022/12/05 11:32:49;;;;;;;;;;;3.20;99.90;;;;;;5051557;28;19917;-60
2022/12/05 11:35:15;;;;;;;;;;;3.20;99.90;;;;;;5047855;28;19966;-61
2022/12/05 11:37:56;;;;;;;;;;;3.30;99.90;;;;;;5051680;28;20539;-60
2022/12/05 11:40:25;;;;;;;;;;;3.40;99.90;;;;;;5052254;28;19913;-61
2022/12/05 11:43:03;;;;;;;;;;;3.40;99.90;;;;;;5053397;28;20070;-61
2022/12/05 11:45:36;;;;;;;;;;;3.40;99.90;;;;;;5052654;28;20290;-61
2022/12/05 11:48:18;;;;;;;;;;;3.40;99.90;;;;;;5050355;28;20382;-61
2022/12/05 11:50:49;;;;;;;;;;;3.50;99.90;;;;;;5052520;28;19960;-59
2022/12/05 11:53:14;;;;;;;;;;;3.50;99.90;;;;;;5053809;28;19939;-61
2022/12/05 11:55:52;;;;;;;;;;;3.40;99.90;;;;;;5051700;28;20371;-60
2022/12/05 11:58:26;;;;;;;;;;;3.40;99.90;;;;;;5046076;28;19916;-61
2022/12/05 12:00:52;;;;;;;;;;;3.30;99.90;;;;;;5051641;28;20008;-61
2022/12/05 12:03:30;;;;;;;;;;;3.30;99.90;;;;;;5051058;28;20395;-62
2022/12/05 12:06:14;;;;;;;;;;;3.30;99.90;;;;;;5051784;28;19971;-61
2022/12/05 12:08:50;;;;;;;;;;;3.30;99.90;;;;;;5048758;28;20019;-61
2022/12/05 12:11:20;;;;;;;;;;;3.40;99.90;;;;;;5049998;28;19913;-62
2022/12/05 12:14:01;;;;;;;;;;;3.50;99.90;;;;;;5053000;28;20354;-62
2022/12/05 12:16:44;;;;;;;;;;;3.50;99.90;;;;;;5051723;28;19921;-60
2022/12/05 12:19:33;;;;;;;;;;;3.50;99.90;;;;;;5050355;28;20290;-60
2022/12/05 12:22:24;;;;;;;;;;;3.50;99.90;;;;;;5043923;28;19912;-59
2022/12/05 12:25:02;;;;;;;;;;;3.50;99.90;;;;;;5048756;28;19913;-59
2022/12/05 12:27:33;;;;;;;;;;;3.50;99.90;;;;;;5049485;28;20019;-60
2022/12/05 12:30:02;;;;;;;;;;;3.50;99.90;;;;;;5050321;28;19924;-60
2022/12/05 12:32:36;;;;;;;;;;;3.40;99.90;;;;;;5050917;28;19916;-60
2022/12/05 12:35:13;;;;;;;;;;;3.50;99.90;;;;;;5050796;28;20272;-61
2022/12/05 12:37:39;;;;;;;;;;;3.50;99.90;;;;;;5051726;28;19959;-58
2022/12/05 12:40:18;;;;;;;;;;;3.60;99.90;;;;;;5050714;28;19960;-60
2022/12/05 12:42:52;;;;;;;;;;;3.50;99.90;;;;;;5049855;28;20387;-60
2022/12/05 12:45:19;;;;;;;;;;;3.60;99.90;;;;;;5051439;28;19923;-60
2022/12/05 12:48:00;;;;;;;;;;;3.40;99.90;;;;;;5049456;28;20045;-60
2022/12/05 12:50:29;;;;;;;;;;;3.60;99.90;;;;;;5044619;28;19913;-57
2022/12/05 12:53:05;;;;;;;;;;;3.60;99.90;;;;;;5044868;28;19916;-61
2022/12/05 12:55:45;;;;;;;;;;;3.70;99.90;;;;;;5049498;28;20002;-62
2022/12/05 12:58:10;;;;;;;;;;;3.50;99.90;;;;;;5050147;28;19913;-60
2022/12/05 13:00:39;;;;;;;;;;;3.50;99.90;;;;;;5049985;28;20306;-62
2022/12/05 13:03:04;;;;;;;;;;;3.60;99.90;;;;;;5049289;28;19923;-61
2022/12/05 13:05:37;;;;;;;;;;;3.60;99.90;;;;;;5050090;28;19913;-61
2022/12/05 13:08:10;;;;;;;;;;;3.30;99.90;;;;;;5049739;28;20043;-62
2022/12/05 13:10:39;;;;;;;;;;;3.40;99.90;;;;;;5048819;28;20002;-62
2022/12/05 13:13:06;;;;;;;;;;;3.50;99.90;;;;;;5051086;28;19971;-58
2022/12/05 13:15:39;;;;;;;;;;;3.40;99.90;;;;;;5050618;28;19920;-60
2022/12/05 13:18:06;;;;;;;;;;;3.40;99.90;;;;;;5049843;28;19928;-61
2022/12/05 13:20:33;;;;;;;;;;;3.40;99.90;;;;;;5050405;28;19917;-57
2022/12/05 13:22:59;;;;;;;;;;;3.40;99.90;;;;;;5050965;28;19913;-60
2022/12/05 13:25:32;;;;;;;;;;;3.30;99.90;;;;;;5047690;28;19917;-60
2022/12/05 13:27:59;;;;;;;;;;;3.40;99.90;;;;;;5042920;28;19927;-58
2022/12/05 13:30:26;;;;;;;;;;;3.50;99.90;;;;;;5047449;28;20408;-61
2022/12/05 13:33:02;;;;;;;;;;;3.40;99.90;;;;;;5046670;28;19920;-61
2022/12/05 13:43:55;;;;;;;;;;;3.40;99.90;;;;;;5049934;28;19970;-61
2022/12/05 13:46:40;;;;;;;;;;;3.40;99.90;;;;;;5048139;28;19917;-60
2022/12/05 13:49:11;;;;;;;;;;;3.30;99.90;;;;;;5045793;28;20425;-61
2022/12/05 13:51:38;;;;;;;;;;;3.40;99.90;;;;;;5047023;28;19924;-61
2022/12/05 13:54:14;;;;;;;;;;;3.40;99.90;;;;;;5048817;28;20007;-62
2022/12/05 13:56:53;;;;;;;;;;;3.40;99.90;;;;;;5046447;28;19916;-62
2022/12/05 13:59:37;;;;;;;;;;;3.30;99.90;;;;;;5048658;28;19909;-61
2022/12/05 14:02:23;;;;;;;;;;;3.40;99.90;;;;;;5046560;28;19923;-62
2022/12/05 14:04:49;;;;;;;;;;;3.40;99.90;;;;;;5048361;28;20004;-58
2022/12/05 14:07:33;;;;;;;;;;;3.40;99.90;;;;;;5048635;28;19923;-59
2022/12/05 14:09:58;;;;;;;;;;;3.30;99.90;;;;;;5046796;28;20357;-61
2022/12/05 14:12:24;;;;;;;;;;;3.20;99.90;;;;;;5046671;28;19920;-59
2022/12/05 14:14:55;;;;;;;;;;;3.30;99.90;;;;;;5049124;28;20422;-60
2022/12/05 14:17:24;;;;;;;;;;;3.30;99.90;;;;;;5046511;28;19912;-59
2022/12/05 14:20:08;;;;;;;;;;;3.30;99.90;;;;;;5048344;28;19919;-61
2022/12/05 14:22:33;;;;;;;;;;;3.40;99.90;;;;;;5046003;28;19956;-60
2022/12/05 14:25:05;;;;;;;;;;;3.50;99.90;;;;;;5062967;28;20062;-62
2022/12/05 14:27:40;;;;;;;;;;;3.40;99.90;;;;;;5048305;28;20730;-60
2022/12/05 14:30:09;;;;;;;;;;;3.40;99.90;;;;;;5047979;28;19947;-61
2022/12/05 14:32:36;;;;;;;;;;;3.50;99.90;;;;;;5049464;28;19924;-62
2022/12/05 14:35:20;;;;;;;;;;;3.40;99.90;;;;;;5062677;28;19917;-61
2022/12/05 14:37:53;;;;;;;;;;;3.30;99.90;;;;;;5048896;28;20451;-61
2022/12/05 14:40:19;;;;;;;;;;;;;;;;;;5052083;28;19913;-61
2022/12/05 14:43:17;;;;;;;;;;;3.30;99.90;;;;;;5050741;28;19917;-61
2022/12/05 14:45:55;;;;;;;;;;;3.30;99.90;;;;;;5009539;28;19924;-57
2022/12/05 14:48:25;;;;;;;;;;;3.30;99.90;;;;;;5042996;28;19958;-57
2022/12/05 14:50:52;;;;;;;;;;;3.20;99.90;;;;;;5053113;28;19963;-62
2022/12/05 14:53:20;;;;;;;;;;;3.20;99.90;;;;;;5046423;28;19920;-62
2022/12/05 14:55:52;;;;;;;;;;;3.30;99.90;;;;;;5049355;28;19913;-61
2022/12/05 14:58:37;;;;;;;;;;;3.40;99.90;;;;;;5051342;28;20276;-60